Spar Draco — LAFO6 — position and weather

sailwx.info

Track history (hours):
 
Tides and Currents Weather Stations Pressure Air Temp Water Temp Dewpoint Dewpoint Depression Visibility Wind Speed Wind Dir Waves Ship Positions

Spar Draco

Last reported at 2017-Jan-09 17:13 UTC. Time now 2017-Jan-19 10:58 UTC.
Position N 31°06' E 122°25'.
Warning: this ship's position is 9 days out of date.

Length 190 m; draft 11.5 m.

Type: Cargo ship. MMSI: 257799000.

Date/timePositionNaut miles runAvg speedWind from/ knotsBaromVisibWave heightAir tempDewpointWater temp
2017-Jan-09 17:13N 31°06' E 122°25'6 9.8
2017-Jan-09 16:33N 31°06' E 122°18'1110.9
2017-Jan-09 15:33N 31°13' E 122°08'10 9.9
2017-Jan-09 14:34N 31°15' E 121°56'9 8.9
2017-Jan-09 13:33N 31°18' E 121°46'8 7.5
2017-Jan-09 12:33N 31°21' E 121°39'7 6.8
2017-Jan-09 11:33N 31°25' E 121°32'7 6.6
2017-Jan-09 10:33N 31°29' E 121°26'8 8.5
2017-Jan-09 09:34N 31°35' E 121°19'1 0.9
2017-Jan-09 08:30N 31°36' E 121°19'0 0.2
2017-Jan-09 07:33N 31°36' E 121°18'9 9.2
2017-Jan-09 06:33N 31°41' E 121°10'  
2017-Jan-04 00:31N 31°49' E 120°57'2 1.5
2017-Jan-03 23:31N 31°48' E 120°58'5 5.5
2017-Jan-03 22:33N 31°51' E 120°54'3 0.1
2017-Jan-02 23:32N 31°54' E 120°53'0 0.1
2017-Jan-02 22:14N 31°54' E 120°53'0 0.0
2017-Jan-02 21:20N 31°54' E 120°53'0 0.0
2017-Jan-02 12:18N 31°54' E 120°53'0 0.0
2017-Jan-01 22:08N 31°54' E 120°53'0 0.1
2017-Jan-01 20:24N 31°54' E 120°53'0 0.0
2017-Jan-01 19:23N 31°54' E 120°53'0 0.0
2016-Dec-31 20:29N 31°54' E 120°53'0 0.0
2016-Dec-31 19:29N 31°54' E 120°53'1 0.2
2016-Dec-31 15:21N 31°54' E 120°53'19 9.8
2016-Dec-31 13:25N 32°01' E 120°33'  
Track history (hours):
 
Tides and Currents Weather Stations Pressure Air Temp Water Temp Dewpoint Dewpoint Depression Visibility Wind Speed Wind Dir Waves Ship Positions

Spar Draco

Last reported at 2017-Jan-09 17:13 UTC. Time now 2017-Jan-19 10:58 UTC.
Position N 31°06' E 122°25'.
Warning: this ship's position is 9 days out of date.

Length 190 m; draft 11.5 m.

Type: Cargo ship. MMSI: 257799000.

Date/timePositionNaut miles runAvg speedWind from/ knotsBaromVisibWave heightAir tempDewpointWater temp
2017-Jan-09 17:13N 31°06' E 122°25'6 9.8
2017-Jan-09 16:33N 31°06' E 122°18'1110.9
2017-Jan-09 15:33N 31°13' E 122°08'10 9.9
2017-Jan-09 14:34N 31°15' E 121°56'9 8.9
2017-Jan-09 13:33N 31°18' E 121°46'8 7.5
2017-Jan-09 12:33N 31°21' E 121°39'7 6.8
2017-Jan-09 11:33N 31°25' E 121°32'7 6.6
2017-Jan-09 10:33N 31°29' E 121°26'8 8.5
2017-Jan-09 09:34N 31°35' E 121°19'1 0.9
2017-Jan-09 08:30N 31°36' E 121°19'0 0.2
2017-Jan-09 07:33N 31°36' E 121°18'9 9.2
2017-Jan-09 06:33N 31°41' E 121°10'  
2017-Jan-04 00:31N 31°49' E 120°57'2 1.5
2017-Jan-03 23:31N 31°48' E 120°58'5 5.5
2017-Jan-03 22:33N 31°51' E 120°54'3 0.1
2017-Jan-02 23:32N 31°54' E 120°53'0 0.1
2017-Jan-02 22:14N 31°54' E 120°53'0 0.0
2017-Jan-02 21:20N 31°54' E 120°53'0 0.0
2017-Jan-02 12:18N 31°54' E 120°53'0 0.0
2017-Jan-01 22:08N 31°54' E 120°53'0 0.1
2017-Jan-01 20:24N 31°54' E 120°53'0 0.0
2017-Jan-01 19:23N 31°54' E 120°53'0 0.0
2016-Dec-31 20:29N 31°54' E 120°53'0 0.0
2016-Dec-31 19:29N 31°54' E 120°53'1 0.2
2016-Dec-31 15:21N 31°54' E 120°53'19 9.8
2016-Dec-31 13:25N 32°01' E 120°33'  

Dump ship's entire track history